createdAt,value
2022-11-29T00:03:12.309Z,35.65
2022-11-29T00:08:16.625Z,35.92
2022-11-29T00:13:19.601Z,34.92
2022-11-29T00:18:22.486Z,35.60
2022-11-29T00:23:27.065Z,35.15
2022-11-29T00:28:29.987Z,35.08
2022-11-29T00:33:32.846Z,35.55
2022-11-29T00:38:37.109Z,35.05
2022-11-29T00:43:40.010Z,34.92
2022-11-29T00:48:42.927Z,34.97
2022-11-29T00:53:47.484Z,34.95
2022-11-29T00:58:50.434Z,34.10
2022-11-29T01:03:53.359Z,33.72
2022-11-29T01:08:57.610Z,35.05
2022-11-29T01:14:02.527Z,34.75
2022-11-29T01:19:07.213Z,34.00
2022-11-29T01:24:11.504Z,34.92
2022-11-29T01:29:15.272Z,34.25
2022-11-29T01:34:18.199Z,34.17
2022-11-29T01:39:22.466Z,34.50
2022-11-29T01:45:02.716Z,34.08
2022-11-29T01:50:08.585Z,34.28
2022-11-29T01:55:13.662Z,34.67
2022-11-29T02:00:20.326Z,34.35
2022-11-29T02:05:24.318Z,33.67
2022-11-29T02:10:41.462Z,33.75
2022-11-29T02:15:50.611Z,34.20
2022-11-29T02:21:36.611Z,34.53
2022-11-29T02:27:17.252Z,34.30
2022-11-29T02:33:05.570Z,33.60
2022-11-29T02:38:25.521Z,33.80
2022-11-29T02:43:41.284Z,33.00
2022-11-29T02:48:56.676Z,33.65
2022-11-29T02:54:05.414Z,33.90
2022-11-29T02:59:17.293Z,33.58
2022-11-29T03:04:29.730Z,33.80
2022-11-29T03:09:41.012Z,33.78
2022-11-29T03:14:55.082Z,33.22
2022-11-29T03:20:14.258Z,34.38
2022-11-29T03:25:23.755Z,34.28
2022-11-29T03:30:26.847Z,33.65
2022-11-29T03:35:38.471Z,33.45
2022-11-29T03:40:49.021Z,33.35
2022-11-29T03:45:58.524Z,33.30
2022-11-29T03:51:08.303Z,33.55
2022-11-29T03:56:27.841Z,33.38
2022-11-29T04:02:09.703Z,32.70
2022-11-29T04:07:32.000Z,32.95
2022-11-29T04:12:53.477Z,33.90
2022-11-29T04:18:19.570Z,33.40
2022-11-29T04:24:13.819Z,33.40
2022-11-29T04:36:43.077Z,33.28
2022-11-29T04:42:09.760Z,34.35
2022-11-29T04:47:40.110Z,33.65
2022-11-29T04:53:21.006Z,34.47
2022-11-29T04:58:31.048Z,33.13
2022-11-29T05:03:42.443Z,33.50
2022-11-29T05:08:52.451Z,33.40
2022-11-29T05:14:01.289Z,33.90
2022-11-29T05:19:16.300Z,33.47
2022-11-29T05:24:29.934Z,34.33
2022-11-29T05:29:50.893Z,34.22
2022-11-29T05:35:13.008Z,34.35
2022-11-29T05:40:42.681Z,35.28
2022-11-29T05:45:50.633Z,33.80
2022-11-29T05:51:06.121Z,35.63
2022-11-29T05:56:15.730Z,33.90
2022-11-29T06:01:23.902Z,37.38
2022-11-29T06:06:34.827Z,34.60
2022-11-29T06:11:42.892Z,34.60
2022-11-29T06:17:10.039Z,34.53
2022-11-29T06:22:40.977Z,34.03
2022-11-29T06:28:07.521Z,41.22
2022-11-29T06:33:18.014Z,43.75
2022-11-29T06:38:25.930Z,39.90
2022-11-29T06:43:29.373Z,36.95
2022-11-29T06:48:38.493Z,35.55
2022-11-29T06:53:49.798Z,34.33
2022-11-29T06:59:03.204Z,34.83
2022-11-29T07:04:49.034Z,34.22
2022-11-29T07:09:58.433Z,34.03
2022-11-29T07:15:01.870Z,34.63
2022-11-29T07:20:13.990Z,33.72
2022-11-29T07:25:26.566Z,34.05
2022-11-29T07:30:36.065Z,33.55
2022-11-29T07:35:46.137Z,34.53
2022-11-29T07:40:57.535Z,34.05
2022-11-29T07:46:01.814Z,34.20
2022-11-29T07:51:04.919Z,33.70
2022-11-29T07:56:10.245Z,34.10
2022-11-29T08:01:13.647Z,33.40
2022-11-29T08:06:16.607Z,33.75
2022-11-29T08:11:20.837Z,33.85
2022-11-29T08:16:23.872Z,33.95
2022-11-29T08:21:27.142Z,33.42
2022-11-29T08:26:32.082Z,33.92
2022-11-29T08:31:36.027Z,34.45
2022-11-29T08:36:39.642Z,33.55
2022-11-29T08:41:44.441Z,34.03
2022-11-29T08:47:04.710Z,37.15
2022-11-29T08:52:25.326Z,34.40
2022-11-29T08:57:39.698Z,35.45
2022-11-29T09:02:43.405Z,36.60
2022-11-29T09:07:46.949Z,34.92
2022-11-29T09:12:51.272Z,35.80
2022-11-29T09:17:59.383Z,37.38
2022-11-29T09:23:03.073Z,37.17
2022-11-29T09:28:07.575Z,37.30
2022-11-29T09:33:10.503Z,39.75
2022-11-29T09:38:13.771Z,37.67
2022-11-29T09:43:25.620Z,37.25
2022-11-29T09:48:53.258Z,34.67
2022-11-29T09:54:07.476Z,34.83
2022-11-29T09:59:18.170Z,35.20
2022-11-29T10:04:25.701Z,34.35
2022-11-29T10:09:34.292Z,35.20
2022-11-29T10:14:46.641Z,34.80
2022-11-29T10:19:54.828Z,34.95
2022-11-29T10:25:01.875Z,35.67
2022-11-29T10:30:23.674Z,35.50
2022-11-29T10:35:26.652Z,36.75
2022-11-29T10:40:33.889Z,36.50
2022-11-29T10:45:40.973Z,36.25
2022-11-29T10:50:46.208Z,35.15
2022-11-29T10:55:52.031Z,35.75
2022-11-29T11:00:58.356Z,36.97
2022-11-29T11:06:05.047Z,36.60
2022-11-29T11:11:09.249Z,36.80
2022-11-29T11:16:18.106Z,35.63
2022-11-29T11:21:24.023Z,37.28
2022-11-29T11:26:27.834Z,36.38
2022-11-29T11:31:35.184Z,36.13
2022-11-29T11:36:38.134Z,37.05
2022-11-29T11:42:00.941Z,37.03
2022-11-29T11:47:06.709Z,36.05
2022-11-29T11:52:19.905Z,36.67
2022-11-29T11:57:24.695Z,37.15
2022-11-29T12:02:40.963Z,36.58
2022-11-29T12:13:19.177Z,36.03
2022-11-29T12:18:31.696Z,35.85
2022-11-29T12:23:41.511Z,35.70
2022-11-29T12:28:46.616Z,35.47
2022-11-29T12:34:00.607Z,35.83
2022-11-29T12:39:22.328Z,34.80
2022-11-29T12:44:48.148Z,33.88
2022-11-29T12:50:05.328Z,35.33
2022-11-29T12:55:17.412Z,35.50
2022-11-29T13:00:21.446Z,34.95
2022-11-29T13:05:38.783Z,36.20
2022-11-29T13:10:56.526Z,36.22
2022-11-29T13:16:05.273Z,35.28
2022-11-29T13:21:14.339Z,36.65
2022-11-29T13:26:17.534Z,36.42
2022-11-29T13:31:25.574Z,35.72
2022-11-29T13:36:39.542Z,36.15
2022-11-29T13:41:47.582Z,35.10
2022-11-29T13:47:02.014Z,34.72
2022-11-29T13:52:17.771Z,34.92
2022-11-29T13:57:22.185Z,35.70
2022-11-29T14:02:29.472Z,36.03
2022-11-29T14:07:35.033Z,37.20
2022-11-29T14:12:42.671Z,36.33
2022-11-29T14:17:54.610Z,36.10
2022-11-29T14:23:30.978Z,36.85
2022-11-29T14:28:34.857Z,36.97
2022-11-29T14:34:02.742Z,36.95
2022-11-29T14:39:21.654Z,37.80
2022-11-29T14:44:28.078Z,39.28
2022-11-29T14:49:32.681Z,38.45
2022-11-29T14:54:54.304Z,40.10
2022-11-29T14:59:59.613Z,38.72
2022-11-29T15:05:17.503Z,38.67
2022-11-29T15:10:27.002Z,39.60
2022-11-29T15:15:53.605Z,38.42
2022-11-29T15:21:15.113Z,40.10
2022-11-29T15:26:21.558Z,40.05
2022-11-29T15:31:26.575Z,39.20
2022-11-29T15:36:30.482Z,39.13
2022-11-29T15:41:37.944Z,39.95
2022-11-29T15:46:40.855Z,39.78
2022-11-29T15:51:44.162Z,39.58
2022-11-29T15:56:51.900Z,40.42
2022-11-29T16:01:58.777Z,40.88
2022-11-29T16:07:04.210Z,40.97
2022-11-29T16:12:12.657Z,41.95
2022-11-29T16:17:16.051Z,41.53
2022-11-29T16:22:24.914Z,41.42
2022-11-29T16:27:32.922Z,41.95
2022-11-29T16:32:38.218Z,43.05
2022-11-29T16:37:44.031Z,41.35
2022-11-29T16:43:06.518Z,40.88
2022-11-29T16:48:29.607Z,41.28
2022-11-29T16:53:42.377Z,41.22
2022-11-29T16:59:17.268Z,40.35
2022-11-29T17:04:11.979Z,40.53
2022-11-29T17:09:28.641Z,40.45
2022-11-29T17:14:33.326Z,40.92
2022-11-29T17:19:36.589Z,41.58
2022-11-29T17:24:46.412Z,41.63
2022-11-29T17:29:56.256Z,41.17
2022-11-29T17:34:59.149Z,41.40
2022-11-29T17:40:02.223Z,42.55
2022-11-29T17:45:07.182Z,44.97
2022-11-29T17:50:10.938Z,42.05
2022-11-29T17:55:18.069Z,42.17
2022-11-29T18:00:25.273Z,41.78
2022-11-29T18:05:34.338Z,42.50
2022-11-29T18:10:37.677Z,48.15
2022-11-29T18:15:45.032Z,42.95
2022-11-29T18:20:47.994Z,42.85
2022-11-29T18:25:59.975Z,42.67
2022-11-29T18:31:09.562Z,41.63
2022-11-29T18:36:14.085Z,42.65
2022-11-29T18:41:18.789Z,42.78
2022-11-29T18:46:24.729Z,43.10
2022-11-29T18:51:29.164Z,41.75
2022-11-29T18:56:38.742Z,43.25
2022-11-29T19:01:45.060Z,43.00
2022-11-29T19:06:49.639Z,43.53
2022-11-29T19:11:52.686Z,41.85
2022-11-29T19:16:57.978Z,41.65
2022-11-29T19:22:00.949Z,42.38
2022-11-29T19:27:06.892Z,40.78
2022-11-29T19:32:11.260Z,44.05
2022-11-29T19:37:15.206Z,43.58
2022-11-29T19:42:18.451Z,42.75
2022-11-29T19:47:22.783Z,44.25
2022-11-29T19:52:27.568Z,44.25
2022-11-29T19:57:30.532Z,46.60
2022-11-29T20:02:35.015Z,46.13
2022-11-29T20:07:40.065Z,43.85
2022-11-29T20:12:45.109Z,43.90
2022-11-29T20:17:49.507Z,43.35
2022-11-29T20:22:53.462Z,44.95
2022-11-29T20:27:57.466Z,44.78
2022-11-29T20:33:03.071Z,43.75
2022-11-29T20:38:25.926Z,45.95
2022-11-29T20:43:39.606Z,45.58
2022-11-29T20:48:47.622Z,46.50
2022-11-29T20:53:50.562Z,45.47
2022-11-29T20:58:53.472Z,45.53
2022-11-29T21:03:57.821Z,51.35
2022-11-29T21:09:00.796Z,45.05
2022-11-29T21:14:05.780Z,45.42
2022-11-29T21:19:19.393Z,43.80
2022-11-29T21:24:30.631Z,44.70
2022-11-29T21:29:33.990Z,43.17
2022-11-29T21:34:38.220Z,44.40
2022-11-29T21:39:41.382Z,45.20
2022-11-29T21:44:44.577Z,45.17
2022-11-29T21:49:49.705Z,43.85
2022-11-29T21:54:52.597Z,44.63
2022-11-29T21:59:55.505Z,42.70
2022-11-29T22:04:59.736Z,44.25
2022-11-29T22:10:10.040Z,43.05
2022-11-29T22:15:20.249Z,43.03
2022-11-29T22:20:27.351Z,43.30
2022-11-29T22:25:30.250Z,43.58
2022-11-29T22:30:33.125Z,42.75
2022-11-29T22:35:43.645Z,42.60
2022-11-29T22:40:46.508Z,42.67
2022-11-29T22:45:49.392Z,42.65
2022-11-29T22:50:53.618Z,44.53
2022-11-29T22:55:58.918Z,43.90
2022-11-29T23:01:05.999Z,43.05
2022-11-29T23:06:12.186Z,43.00
2022-11-29T23:11:16.718Z,42.75
2022-11-29T23:16:21.769Z,43.28
2022-11-29T23:21:28.824Z,44.33
2022-11-29T23:26:36.349Z,42.85
2022-11-29T23:31:39.855Z,44.20
2022-11-29T23:36:49.622Z,42.33
2022-11-29T23:41:56.466Z,42.10
2022-11-29T23:46:59.356Z,42.88
2022-11-29T23:52:03.602Z,43.33
2022-11-29T23:57:06.519Z,41.95
